Time,TemperatureF,DewpointF,PressureIn,WindDirection,WindDirectionDegrees,WindSpeedMPH,WindSpeedGustMPH,Humidity,HourlyPrecipIn,Conditions,Clouds,dailyrainin,SoftwareType,DateUTC
2013-02-07 00:11:00,58.6,58.4,29.69,East,90,4.3,-999.0,99,-99.99,,,0.00,Acu-Link.com,2013-02-07 06:11:00,
2013-02-07 00:26:00,58.5,58.2,29.68,ESE,112,1.6,-999.0,99,-99.99,,,0.00,Acu-Link.com,2013-02-07 06:26:00,
2013-02-07 00:42:00,58.5,58.2,29.67,ESE,112,3.1,-999.0,99,-99.99,,,0.00,Acu-Link.com,2013-02-07 06:42:00,
2013-02-07 00:57:00,58.3,58.0,29.69,East,90,1.1,-999.0,99,-99.99,,,0.00,Acu-Link.com,2013-02-07 06:57:00,
2013-02-07 01:12:00,58.3,58.0,29.69,West,270,0.0,-999.0,99,-99.99,,,0.00,Acu-Link.com,2013-02-07 07:12:00,
2013-02-07 01:28:00,57.9,57.6,29.68,ENE,67,0.0,-999.0,99,-99.99,,,0.00,Acu-Link.com,2013-02-07 07:28:00,
2013-02-07 01:43:00,57.6,57.3,29.68,South,180,0.0,-999.0,99,-99.99,,,0.00,Acu-Link.com,2013-02-07 07:43:00,
2013-02-07 01:58:00,57.0,56.7,29.68,NNE,22,0.0,-999.0,99,-99.99,,,0.00,Acu-Link.com,2013-02-07 07:58:00,
2013-02-07 02:14:00,56.5,56.2,29.68,NNE,22,0.0,-999.0,99,-99.99,,,0.00,Acu-Link.com,2013-02-07 08:14:00,
2013-02-07 02:29:00,55.9,55.7,29.67,East,90,2.7,-999.0,99,-99.99,,,0.00,Acu-Link.com,2013-02-07 08:29:00,
2013-02-07 02:44:00,56.1,55.8,29.67,East,90,2.2,-999.0,99,-99.99,,,0.00,Acu-Link.com,2013-02-07 08:44:00,
2013-02-07 02:59:00,55.6,55.3,29.67,NNW,337,0.0,-999.0,99,-99.99,,,0.00,Acu-Link.com,2013-02-07 08:59:00,
2013-02-07 03:15:00,55.8,55.5,29.67,NNE,22,2.2,-999.0,99,-99.99,,,0.00,Acu-Link.com,2013-02-07 09:15:00,
2013-02-07 03:30:00,56.5,56.2,29.66,NNE,22,3.1,-999.0,99,-99.99,,,0.00,Acu-Link.com,2013-02-07 09:30:00,
2013-02-07 04:00:00,57.0,56.7,29.66,NNE,22,3.8,-999.0,99,-99.99,,,0.00,Acu-Link.com,2013-02-07 10:00:00,
2013-02-07 04:16:00,57.0,56.7,29.66,North,0,3.8,-999.0,99,-99.99,,,0.00,Acu-Link.com,2013-02-07 10:16:00,
2013-02-07 04:31:00,57.0,56.7,29.65,NNE,22,4.3,-999.0,99,-99.99,,,0.00,Acu-Link.com,2013-02-07 10:31:00,
2013-02-07 04:46:00,57.0,56.7,29.66,North,0,3.8,-999.0,99,-99.99,,,0.00,Acu-Link.com,2013-02-07 10:46:00,
2013-02-07 05:02:00,57.0,56.7,29.67,NNE,22,3.8,-999.0,99,-99.99,,,0.00,Acu-Link.com,2013-02-07 11:02:00,
2013-02-07 05:17:00,57.0,56.7,29.67,NNW,337,2.7,-999.0,99,-99.99,,,0.00,Acu-Link.com,2013-02-07 11:17:00,
2013-02-07 05:32:00,57.2,56.9,29.67,North,0,3.1,-999.0,99,-99.99,,,0.00,Acu-Link.com,2013-02-07 11:32:00,
2013-02-07 05:47:00,57.2,56.9,29.69,WSW,247,2.2,-999.0,99,-99.99,,,0.00,Acu-Link.com,2013-02-07 11:47:00,
2013-02-07 06:03:00,57.2,56.9,29.69,NNW,337,2.2,-999.0,99,-99.99,,,0.00,Acu-Link.com,2013-02-07 12:03:00,
2013-02-07 06:18:00,57.2,56.9,29.69,NNE,22,1.6,-999.0,99,-99.99,,,0.00,Acu-Link.com,2013-02-07 12:18:00,
2013-02-07 06:33:00,57.2,56.9,29.70,WNW,292,2.7,-999.0,99,-99.99,,,0.00,Acu-Link.com,2013-02-07 12:33:00,
2013-02-07 06:49:00,57.2,56.9,29.71,West,270,2.2,-999.0,99,-99.99,,,0.00,Acu-Link.com,2013-02-07 12:49:00,
2013-02-07 07:04:00,57.4,57.1,29.71,NNE,22,1.1,-999.0,99,-99.99,,,0.00,Acu-Link.com,2013-02-07 13:04:00,
2013-02-07 07:19:00,57.4,57.1,29.71,NW,315,2.7,-999.0,99,-99.99,,,0.00,Acu-Link.com,2013-02-07 13:19:00,
2013-02-07 07:35:00,57.4,57.1,29.71,ENE,67,1.6,-999.0,99,-99.99,,,0.00,Acu-Link.com,2013-02-07 13:35:00,
2013-02-07 07:50:00,57.6,57.3,29.73,North,0,5.1,-999.0,99,-99.99,,,0.00,Acu-Link.com,2013-02-07 13:50:00,
2013-02-07 08:05:00,57.9,57.6,29.73,NE,45,2.7,-999.0,99,-99.99,,,0.00,Acu-Link.com,2013-02-07 14:05:00,
2013-02-07 08:20:00,58.1,57.5,29.73,NNE,22,2.2,-999.0,98,-99.99,,,0.00,Acu-Link.com,2013-02-07 14:20:00,
2013-02-07 08:36:00,58.5,57.9,29.74,ENE,67,3.1,-999.0,98,-99.99,,,0.00,Acu-Link.com,2013-02-07 14:36:00,
2013-02-07 08:51:00,58.6,57.5,29.75,NW,315,1.1,-999.0,96,-99.99,,,0.00,Acu-Link.com,2013-02-07 14:51:00,
2013-02-07 09:06:00,59.0,57.9,29.76,NW,315,3.8,-999.0,96,-99.99,,,0.00,Acu-Link.com,2013-02-07 15:06:00,
2013-02-07 09:22:00,59.0,57.6,29.76,NW,315,4.7,-999.0,95,-99.99,,,0.00,Acu-Link.com,2013-02-07 15:22:00,
2013-02-07 09:37:00,59.0,57.6,29.77,West,270,4.3,-999.0,95,-99.99,,,0.00,Acu-Link.com,2013-02-07 15:37:00,
2013-02-07 09:52:00,59.2,57.5,29.77,NW,315,1.6,-999.0,94,-99.99,,,0.00,Acu-Link.com,2013-02-07 15:52:00,
2013-02-07 10:08:00,59.4,57.6,29.77,NW,315,4.3,-999.0,94,-99.99,,,0.00,Acu-Link.com,2013-02-07 16:08:00,
2013-02-07 10:23:00,59.7,58.0,29.78,West,270,1.6,-999.0,94,-99.99,,,0.00,Acu-Link.com,2013-02-07 16:23:00,
2013-02-07 10:38:00,59.9,57.9,29.77,NW,315,2.2,-999.0,93,-99.99,,,0.00,Acu-Link.com,2013-02-07 16:38:00,
2013-02-07 11:08:00,60.4,58.1,29.77,WNW,292,3.1,-999.0,92,-99.99,,,0.00,Acu-Link.com,2013-02-07 17:08:00,
2013-02-07 11:24:00,61.0,58.6,29.77,NNW,337,4.7,-999.0,92,-99.99,,,0.00,Acu-Link.com,2013-02-07 17:24:00,
2013-02-07 11:39:00,61.5,58.6,29.77,NNW,337,4.7,-999.0,90,-99.99,,,0.00,Acu-Link.com,2013-02-07 17:39:00,
2013-02-07 11:54:00,61.5,58.6,29.76,North,0,6.3,-999.0,90,-99.99,,,0.00,Acu-Link.com,2013-02-07 17:54:00,
2013-02-07 12:10:00,62.1,58.8,29.76,NNW,337,5.1,-999.0,89,-99.99,,,0.00,Acu-Link.com,2013-02-07 18:10:00,
2013-02-07 12:25:00,62.1,58.8,29.75,NNW,337,2.2,-999.0,89,-99.99,,,0.00,Acu-Link.com,2013-02-07 18:25:00,
2013-02-07 12:40:00,62.2,58.6,29.75,WNW,292,3.8,-999.0,88,-99.99,,,0.00,Acu-Link.com,2013-02-07 18:40:00,
2013-02-07 12:56:00,62.4,58.8,29.75,NNW,337,4.3,-999.0,88,-99.99,,,0.00,Acu-Link.com,2013-02-07 18:56:00,
2013-02-07 13:11:00,63.5,59.6,29.74,NNW,337,6.3,-999.0,87,-99.99,,,0.00,Acu-Link.com,2013-02-07 19:11:00,
2013-02-07 13:26:00,63.5,59.6,29.73,North,0,5.1,-999.0,87,-99.99,,,0.00,Acu-Link.com,2013-02-07 19:26:00,
2013-02-07 13:41:00,62.8,58.8,29.73,NNW,337,4.3,-999.0,87,-99.99,,,0.00,Acu-Link.com,2013-02-07 19:41:00,
2013-02-07 13:57:00,64.8,60.8,29.73,NNW,337,4.7,-999.0,87,-99.99,,,0.00,Acu-Link.com,2013-02-07 19:57:00,
2013-02-07 14:12:00,64.2,59.9,29.72,NNW,337,6.7,-999.0,86,-99.99,,,0.00,Acu-Link.com,2013-02-07 20:12:00,
2013-02-07 14:27:00,64.9,60.0,29.71,NW,315,4.3,-999.0,84,-99.99,,,0.00,Acu-Link.com,2013-02-07 20:27:00,
2013-02-07 14:43:00,66.4,61.4,29.70,NNE,22,4.7,-999.0,84,-99.99,,,0.00,Acu-Link.com,2013-02-07 20:43:00,
2013-02-07 14:58:00,66.6,60.5,29.70,West,270,8.3,-999.0,81,-99.99,,,0.00,Acu-Link.com,2013-02-07 20:58:00,
2013-02-07 15:13:00,65.3,60.3,29.71,West,270,4.3,-999.0,84,-99.99,,,0.00,Acu-Link.com,2013-02-07 21:13:00,
2013-02-07 15:29:00,65.7,60.7,29.71,NNW,337,4.7,-999.0,84,-99.99,,,0.00,Acu-Link.com,2013-02-07 21:29:00,
2013-02-07 15:44:00,66.9,61.2,29.71,West,270,4.3,-999.0,82,-99.99,,,0.00,Acu-Link.com,2013-02-07 21:44:00,
2013-02-07 15:59:00,66.2,60.9,29.71,SW,225,2.2,-999.0,83,-99.99,,,0.00,Acu-Link.com,2013-02-07 21:59:00,
2013-02-07 16:14:00,66.6,60.9,29.70,NE,45,2.2,-999.0,82,-99.99,,,0.00,Acu-Link.com,2013-02-07 22:14:00,
2013-02-07 16:30:00,66.4,61.1,29.71,NNW,337,1.6,-999.0,83,-99.99,,,0.00,Acu-Link.com,2013-02-07 22:30:00,
2013-02-07 16:45:00,66.9,61.2,29.71,ESE,112,1.6,-999.0,82,-99.99,,,0.00,Acu-Link.com,2013-02-07 22:45:00,
2013-02-07 17:00:00,67.6,62.3,29.71,SSE,157,1.1,-999.0,83,-99.99,,,0.00,Acu-Link.com,2013-02-07 23:00:00,
2013-02-07 17:16:00,67.1,61.4,29.70,SSW,202,3.8,-999.0,82,-99.99,,,0.00,Acu-Link.com,2013-02-07 23:16:00,
2013-02-07 17:31:00,66.9,61.2,29.71,SSW,202,3.1,-999.0,82,-99.99,,,0.00,Acu-Link.com,2013-02-07 23:31:00,
2013-02-07 17:46:00,65.8,60.9,29.71,WSW,247,3.1,-999.0,84,-99.99,,,0.00,Acu-Link.com,2013-02-07 23:46:00,
2013-02-07 18:02:00,63.5,60.2,29.72,West,270,4.7,-999.0,89,-99.99,,,0.00,Acu-Link.com,2013-02-08 00:02:00,
2013-02-07 18:17:00,63.1,60.2,29.74,WSW,247,3.8,-999.0,90,-99.99,,,0.00,Acu-Link.com,2013-02-08 00:17:00,
2013-02-07 18:32:00,62.4,60.1,29.73,SSW,202,2.7,-999.0,92,-99.99,,,0.00,Acu-Link.com,2013-02-08 00:32:00,
2013-02-07 18:47:00,61.7,59.7,29.73,South,180,1.1,-999.0,93,-99.99,,,0.00,Acu-Link.com,2013-02-08 00:47:00,
2013-02-07 19:03:00,61.2,59.1,29.72,ESE,112,0.0,-999.0,93,-99.99,,,0.00,Acu-Link.com,2013-02-08 01:03:00,
2013-02-07 19:18:00,60.8,59.7,29.73,West,270,2.2,-999.0,96,-99.99,,,0.00,Acu-Link.com,2013-02-08 01:18:00,
2013-02-07 19:33:00,61.2,59.7,29.74,West,270,3.1,-999.0,95,-99.99,,,0.00,Acu-Link.com,2013-02-08 01:33:00,
2013-02-07 19:49:00,62.1,59.7,29.74,NNW,337,2.2,-999.0,92,-99.99,,,0.00,Acu-Link.com,2013-02-08 01:49:00,
2013-02-07 20:04:00,62.1,60.0,29.74,NNW,337,0.0,-999.0,93,-99.99,,,0.00,Acu-Link.com,2013-02-08 02:04:00,
2013-02-07 20:19:00,61.9,60.1,29.74,SE,135,2.2,-999.0,94,-99.99,,,0.00,Acu-Link.com,2013-02-08 02:19:00,
2013-02-07 20:34:00,61.7,60.0,29.75,East,90,0.0,-999.0,94,-99.99,,,0.00,Acu-Link.com,2013-02-08 02:34:00,
2013-02-07 20:50:00,61.5,60.1,29.75,ESE,112,0.0,-999.0,95,-99.99,,,0.00,Acu-Link.com,2013-02-08 02:50:00,
2013-02-07 21:05:00,61.5,59.8,29.75,NE,45,0.0,-999.0,94,-99.99,,,0.00,Acu-Link.com,2013-02-08 03:05:00,
2013-02-07 21:20:00,61.5,60.1,29.76,West,270,0.0,-999.0,95,-99.99,,,0.00,Acu-Link.com,2013-02-08 03:20:00,
2013-02-07 21:36:00,61.5,60.7,29.76,South,180,2.2,-999.0,97,-99.99,,,0.00,Acu-Link.com,2013-02-08 03:36:00,
2013-02-07 21:51:00,61.0,60.1,29.76,SSW,202,1.6,-999.0,97,-99.99,,,0.00,Acu-Link.com,2013-02-08 03:51:00,
2013-02-07 22:06:00,60.8,59.9,29.76,SSW,202,1.1,-999.0,97,-99.99,,,0.00,Acu-Link.com,2013-02-08 04:06:00,
2013-02-07 22:22:00,60.8,59.9,29.76,South,180,0.0,-999.0,97,-99.99,,,0.00,Acu-Link.com,2013-02-08 04:22:00,
2013-02-07 22:37:00,60.4,59.6,29.76,ESE,112,1.6,-999.0,97,-99.99,,,0.00,Acu-Link.com,2013-02-08 04:37:00,
2013-02-07 22:52:00,59.5,58.7,29.76,SSE,157,0.0,-999.0,97,-99.99,,,0.00,Acu-Link.com,2013-02-08 04:52:00,
2013-02-07 23:08:00,58.5,57.6,29.76,West,270,0.0,-999.0,97,-99.99,,,0.00,Acu-Link.com,2013-02-08 05:08:00,
2013-02-07 23:23:00,57.9,57.4,29.76,West,270,0.0,-999.0,98,-99.99,,,0.00,Acu-Link.com,2013-02-08 05:23:00,
2013-02-07 23:38:00,57.7,57.5,29.76,NW,315,2.7,-999.0,99,-99.99,,,0.00,Acu-Link.com,2013-02-08 05:38:00,
2013-02-07 23:53:00,57.7,57.5,29.77,North,0,2.7,-999.0,99,-99.99,,,0.00,Acu-Link.com,2013-02-08 05:53:00,